Terminal Aerodrome Forecast
Issued by NWS

Home | Current Version | Previous Version | Text Only | Print | Product List | Glossary On
Versions: 1 2 3 4 5 6 7 8 9 10 11 12 13 14 15 16 17 18
527
FTUS46 KSTO 162350
TAFRBL
TAF
KRBL 162350Z 1700/1724 34008KT P6SM BKN250
      TEMPO 1716/1720 2SM BR OVC005=

USA.gov is the U.S. government's official web portal to all federal, state and local government web resources and services.